sensor_id;sensor_type;location;lat;lon;timestamp;pressure;altitude;pressure_sealevel;temperature;humidity
24486;BME280;13449;49.374;8.584;2024-02-21T00:00:56;101539.63;;;7.06;100.00
24486;BME280;13449;49.374;8.584;2024-02-21T00:03:22;101543.09;;;7.07;100.00
24486;BME280;13449;49.374;8.584;2024-02-21T00:05:49;101538.72;;;7.07;100.00
24486;BME280;13449;49.374;8.584;2024-02-21T00:08:16;101530.94;;;7.06;100.00
24486;BME280;13449;49.374;8.584;2024-02-21T00:10:42;101530.94;;;7.06;100.00
24486;BME280;13449;49.374;8.584;2024-02-21T00:13:09;101518.75;;;7.05;100.00
24486;BME280;13449;49.374;8.584;2024-02-21T00:15:37;101523.06;;;7.06;100.00
24486;BME280;13449;49.374;8.584;2024-02-21T00:18:03;101528.22;;;7.07;100.00
24486;BME280;13449;49.374;8.584;2024-02-21T00:20:30;101527.38;;;7.07;100.00
24486;BME280;13449;49.374;8.584;2024-02-21T00:22:59;101531.84;;;7.05;100.00
24486;BME280;13449;49.374;8.584;2024-02-21T00:25:26;101524.63;;;7.10;100.00
24486;BME280;13449;49.374;8.584;2024-02-21T00:27:52;101508.00;;;7.11;100.00
24486;BME280;13449;49.374;8.584;2024-02-21T00:30:20;101504.31;;;7.15;100.00
24486;BME280;13449;49.374;8.584;2024-02-21T00:32:47;101497.25;;;7.17;100.00
24486;BME280;13449;49.374;8.584;2024-02-21T00:35:14;101504.94;;;7.20;100.00
24486;BME280;13449;49.374;8.584;2024-02-21T00:37:43;101501.47;;;7.19;100.00
24486;BME280;13449;49.374;8.584;2024-02-21T00:40:12;101500.34;;;7.25;100.00
24486;BME280;13449;49.374;8.584;2024-02-21T00:42:39;101486.34;;;7.26;100.00
24486;BME280;13449;49.374;8.584;2024-02-21T00:45:06;101489.59;;;7.31;100.00
24486;BME280;13449;49.374;8.584;2024-02-21T00:47:35;101470.16;;;7.35;100.00
24486;BME280;13449;49.374;8.584;2024-02-21T00:50:04;101467.47;;;7.37;100.00
24486;BME280;13449;49.374;8.584;2024-02-21T00:52:35;101476.84;;;7.42;100.00
24486;BME280;13449;49.374;8.584;2024-02-21T00:55:01;101479.47;;;7.42;100.00
24486;BME280;13449;49.374;8.584;2024-02-21T00:57:28;101479.50;;;7.41;100.00
24486;BME280;13449;49.374;8.584;2024-02-21T00:59:55;101476.25;;;7.36;100.00
24486;BME280;13449;49.374;8.584;2024-02-21T01:02:23;101467.78;;;7.31;100.00
24486;BME280;13449;49.374;8.584;2024-02-21T01:04:50;101467.00;;;7.29;100.00
24486;BME280;13449;49.374;8.584;2024-02-21T01:07:17;101459.25;;;7.26;100.00
24486;BME280;13449;49.374;8.584;2024-02-21T01:09:43;101448.94;;;7.22;100.00
24486;BME280;13449;49.374;8.584;2024-02-21T01:12:10;101456.72;;;7.24;100.00
24486;BME280;13449;49.374;8.584;2024-02-21T01:14:36;101448.16;;;7.20;100.00
24486;BME280;13449;49.374;8.584;2024-02-21T01:17:03;101447.22;;;7.21;100.00
24486;BME280;13449;49.374;8.584;2024-02-21T01:19:29;101443.00;;;7.19;100.00
24486;BME280;13449;49.374;8.584;2024-02-21T01:21:56;101457.00;;;7.18;100.00
24486;BME280;13449;49.374;8.584;2024-02-21T01:24:25;101461.41;;;7.17;100.00
24486;BME280;13449;49.374;8.584;2024-02-21T01:26:51;101463.94;;;7.19;100.00
24486;BME280;13449;49.374;8.584;2024-02-21T01:29:18;101471.03;;;7.17;100.00
24486;BME280;13449;49.374;8.584;2024-02-21T01:31:44;101477.28;;;7.14;100.00
24486;BME280;13449;49.374;8.584;2024-02-21T01:34:11;101463.47;;;7.11;100.00
24486;BME280;13449;49.374;8.584;2024-02-21T01:36:37;101465.34;;;7.07;100.00
24486;BME280;13449;49.374;8.584;2024-02-21T01:39:04;101455.88;;;7.05;100.00
24486;BME280;13449;49.374;8.584;2024-02-21T01:41:36;101453.41;;;7.02;100.00
24486;BME280;13449;49.374;8.584;2024-02-21T01:44:03;101452.63;;;7.00;100.00
24486;BME280;13449;49.374;8.584;2024-02-21T01:46:29;101449.94;;;7.01;100.00
24486;BME280;13449;49.374;8.584;2024-02-21T01:48:57;101450.78;;;7.02;100.00
24486;BME280;13449;49.374;8.584;2024-02-21T01:51:24;101437.53;;;7.05;100.00
24486;BME280;13449;49.374;8.584;2024-02-21T01:53:55;101443.56;;;7.07;100.00
24486;BME280;13449;49.374;8.584;2024-02-21T01:56:22;101445.41;;;7.05;100.00
24486;BME280;13449;49.374;8.584;2024-02-21T01:58:48;101441.84;;;7.06;100.00
24486;BME280;13449;49.374;8.584;2024-02-21T02:01:16;101436.63;;;7.06;100.00
24486;BME280;13449;49.374;8.584;2024-02-21T02:03:47;101429.81;;;7.02;100.00
24486;BME280;13449;49.374;8.584;2024-02-21T02:06:15;101432.44;;;7.02;100.00
24486;BME280;13449;49.374;8.584;2024-02-21T02:08:41;101429.06;;;7.00;100.00
24486;BME280;13449;49.374;8.584;2024-02-21T02:11:13;101428.28;;;6.98;100.00
24486;BME280;13449;49.374;8.584;2024-02-21T02:13:41;101432.59;;;6.99;100.00
24486;BME280;13449;49.374;8.584;2024-02-21T02:16:07;101419.56;;;6.97;100.00
24486;BME280;13449;49.374;8.584;2024-02-21T02:18:34;101420.41;;;6.98;100.00
24486;BME280;13449;49.374;8.584;2024-02-21T02:21:05;101417.88;;;6.96;100.00
24486;BME280;13449;49.374;8.584;2024-02-21T02:23:36;101409.34;;;6.91;100.00
24486;BME280;13449;49.374;8.584;2024-02-21T02:26:03;101403.50;;;6.86;100.00
24486;BME280;13449;49.374;8.584;2024-02-21T02:28:30;101400.09;;;6.84;100.00
24486;BME280;13449;49.374;8.584;2024-02-21T02:30:59;101387.34;;;6.76;100.00
24486;BME280;13449;49.374;8.584;2024-02-21T02:33:25;101390.81;;;6.77;100.00
24486;BME280;13449;49.374;8.584;2024-02-21T02:35:52;101388.25;;;6.75;100.00
24486;BME280;13449;49.374;8.584;2024-02-21T02:38:18;101387.69;;;6.87;100.00
24486;BME280;13449;49.374;8.584;2024-02-21T02:40:45;101382.41;;;6.89;100.00
24486;BME280;13449;49.374;8.584;2024-02-21T02:43:12;101369.53;;;6.84;100.00
24486;BME280;13449;49.374;8.584;2024-02-21T02:45:39;101366.81;;;6.86;100.00
24486;BME280;13449;49.374;8.584;2024-02-21T02:48:06;101352.03;;;6.85;100.00
24486;BME280;13449;49.374;8.584;2024-02-21T02:50:35;101359.03;;;6.84;100.00
24486;BME280;13449;49.374;8.584;2024-02-21T02:53:02;101353.97;;;6.81;100.00
24486;BME280;13449;49.374;8.584;2024-02-21T02:55:28;101361.94;;;6.78;100.00
24486;BME280;13449;49.374;8.584;2024-02-21T02:57:55;101362.00;;;6.77;100.00
24486;BME280;13449;49.374;8.584;2024-02-21T03:00:22;101370.00;;;6.74;100.00
24486;BME280;13449;49.374;8.584;2024-02-21T03:02:49;101368.69;;;6.65;100.00
24486;BME280;13449;49.374;8.584;2024-02-21T03:05:20;101356.50;;;6.64;100.00
24486;BME280;13449;49.374;8.584;2024-02-21T03:07:48;101340.81;;;6.64;100.00
24486;BME280;13449;49.374;8.584;2024-02-21T03:10:18;101334.91;;;6.59;100.00
24486;BME280;13449;49.374;8.584;2024-02-21T03:12:45;101325.38;;;6.58;100.00
24486;BME280;13449;49.374;8.584;2024-02-21T03:15:13;101334.13;;;6.57;100.00
24486;BME280;13449;49.374;8.584;2024-02-21T03:17:41;101320.28;;;6.55;100.00
24486;BME280;13449;49.374;8.584;2024-02-21T03:20:08;101317.66;;;6.55;100.00
24486;BME280;13449;49.374;8.584;2024-02-21T03:22:39;101313.63;;;6.48;100.00
24486;BME280;13449;49.374;8.584;2024-02-21T03:25:08;101318.88;;;6.48;100.00
24486;BME280;13449;49.374;8.584;2024-02-21T03:27:35;101315.75;;;6.40;100.00
24486;BME280;13449;49.374;8.584;2024-02-21T03:30:02;101307.75;;;6.43;100.00
24486;BME280;13449;49.374;8.584;2024-02-21T03:32:33;101308.81;;;6.39;100.00
24486;BME280;13449;49.374;8.584;2024-02-21T03:34:59;101300.97;;;6.39;100.00
24486;BME280;13449;49.374;8.584;2024-02-21T03:37:28;101293.97;;;6.39;100.00
24486;BME280;13449;49.374;8.584;2024-02-21T03:39:55;101286.34;;;6.35;100.00
24486;BME280;13449;49.374;8.584;2024-02-21T03:42:21;101291.56;;;6.35;100.00
24486;BME280;13449;49.374;8.584;2024-02-21T03:44:48;101289.56;;;6.40;100.00
24486;BME280;13449;49.374;8.584;2024-02-21T03:47:17;101288.16;;;6.33;100.00
24486;BME280;13449;49.374;8.584;2024-02-21T03:49:44;101291.75;;;6.30;100.00
24486;BME280;13449;49.374;8.584;2024-02-21T03:52:10;101295.22;;;6.30;100.00
24486;BME280;13449;49.374;8.584;2024-02-21T03:54:37;101293.75;;;6.25;100.00
24486;BME280;13449;49.374;8.584;2024-02-21T03:57:05;101290.56;;;6.18;100.00
24486;BME280;13449;49.374;8.584;2024-02-21T03:59:31;101290.69;;;6.15;100.00
24486;BME280;13449;49.374;8.584;2024-02-21T04:01:58;101296.91;;;6.13;100.00
24486;BME280;13449;49.374;8.584;2024-02-21T04:04:25;101296.97;;;6.11;100.00
24486;BME280;13449;49.374;8.584;2024-02-21T04:06:52;101299.88;;;6.05;100.00
24486;BME280;13449;49.374;8.584;2024-02-21T04:09:18;101300.00;;;6.02;100.00
24486;BME280;13449;49.374;8.584;2024-02-21T04:11:45;101313.28;;;5.97;100.00
24486;BME280;13449;49.374;8.584;2024-02-21T04:14:12;101309.25;;;5.90;100.00
24486;BME280;13449;49.374;8.584;2024-02-21T04:16:39;101316.44;;;5.84;100.00
24486;BME280;13449;49.374;8.584;2024-02-21T04:19:06;101324.47;;;6.01;100.00
24486;BME280;13449;49.374;8.584;2024-02-21T04:21:34;101320.94;;;6.02;100.00
24486;BME280;13449;49.374;8.584;2024-02-21T04:24:01;101308.75;;;5.81;100.00
24486;BME280;13449;49.374;8.584;2024-02-21T04:26:30;101299.34;;;5.77;100.00
24486;BME280;13449;49.374;8.584;2024-02-21T04:28:57;101297.66;;;5.76;100.00
24486;BME280;13449;49.374;8.584;2024-02-21T04:31:24;101296.47;;;5.62;100.00
24486;BME280;13449;49.374;8.584;2024-02-21T04:33:51;101290.75;;;5.54;100.00
24486;BME280;13449;49.374;8.584;2024-02-21T04:36:18;101293.59;;;5.48;100.00
24486;BME280;13449;49.374;8.584;2024-02-21T04:38:45;101293.88;;;5.42;100.00
24486;BME280;13449;49.374;8.584;2024-02-21T04:41:11;101276.56;;;5.39;100.00
24486;BME280;13449;49.374;8.584;2024-02-21T04:43:38;101274.78;;;5.40;100.00
24486;BME280;13449;49.374;8.584;2024-02-21T04:46:04;101272.31;;;5.37;100.00
24486;BME280;13449;49.374;8.584;2024-02-21T04:48:31;101263.03;;;5.30;100.00
24486;BME280;13449;49.374;8.584;2024-02-21T04:50:58;101269.03;;;5.32;100.00
24486;BME280;13449;49.374;8.584;2024-02-21T04:53:24;101264.84;;;5.28;100.00
24486;BME280;13449;49.374;8.584;2024-02-21T04:55:51;101254.06;;;5.15;100.00
24486;BME280;13449;49.374;8.584;2024-02-21T04:58:17;101249.81;;;5.13;100.00
24486;BME280;13449;49.374;8.584;2024-02-21T05:00:44;101244.66;;;5.11;100.00
24486;BME280;13449;49.374;8.584;2024-02-21T05:03:11;101245.72;;;5.07;100.00
24486;BME280;13449;49.374;8.584;2024-02-21T05:05:40;101234.41;;;5.06;100.00
24486;BME280;13449;49.374;8.584;2024-02-21T05:08:07;101236.47;;;4.98;100.00
24486;BME280;13449;49.374;8.584;2024-02-21T05:10:34;101231.38;;;4.95;100.00
24486;BME280;13449;49.374;8.584;2024-02-21T05:13:00;101229.56;;;4.97;100.00
24486;BME280;13449;49.374;8.584;2024-02-21T05:15:27;101231.53;;;4.92;100.00
24486;BME280;13449;49.374;8.584;2024-02-21T05:17:54;101234.91;;;4.94;100.00
24486;BME280;13449;49.374;8.584;2024-02-21T05:20:20;101241.06;;;4.93;100.00
24486;BME280;13449;49.374;8.584;2024-02-21T05:22:47;101245.22;;;4.97;100.00
24486;BME280;13449;49.374;8.584;2024-02-21T05:25:16;101241.97;;;4.92;100.00
24486;BME280;13449;49.374;8.584;2024-02-21T05:27:43;101231.66;;;4.89;100.00
24486;BME280;13449;49.374;8.584;2024-02-21T05:30:10;101243.03;;;4.87;100.00
24486;BME280;13449;49.374;8.584;2024-02-21T05:32:37;101239.78;;;4.81;100.00
24486;BME280;13449;49.374;8.584;2024-02-21T05:35:04;101255.75;;;4.74;100.00
24486;BME280;13449;49.374;8.584;2024-02-21T05:37:33;101235.88;;;4.70;100.00
24486;BME280;13449;49.374;8.584;2024-02-21T05:39:59;101237.84;;;4.65;100.00
24486;BME280;13449;49.374;8.584;2024-02-21T05:42:26;101229.34;;;4.60;100.00
24486;BME280;13449;49.374;8.584;2024-02-21T05:44:52;101227.69;;;4.57;100.00
24486;BME280;13449;49.374;8.584;2024-02-21T05:47:21;101228.13;;;4.68;100.00
24486;BME280;13449;49.374;8.584;2024-02-21T05:49:47;101229.88;;;4.68;100.00
24486;BME280;13449;49.374;8.584;2024-02-21T05:52:14;101235.41;;;4.82;100.00
24486;BME280;13449;49.374;8.584;2024-02-21T05:54:43;101240.75;;;4.79;100.00
24486;BME280;13449;49.374;8.584;2024-02-21T05:57:12;101250.22;;;4.81;100.00
24486;BME280;13449;49.374;8.584;2024-02-21T05:59:38;101255.56;;;4.78;100.00
24486;BME280;13449;49.374;8.584;2024-02-21T06:02:06;101256.28;;;4.82;100.00
24486;BME280;13449;49.374;8.584;2024-02-21T06:04:33;101259.38;;;4.70;100.00
24486;BME280;13449;49.374;8.584;2024-02-21T06:07:00;101260.53;;;4.63;100.00
24486;BME280;13449;49.374;8.584;2024-02-21T06:09:27;101257.16;;;4.61;100.00
24486;BME280;13449;49.374;8.584;2024-02-21T06:11:54;101246.28;;;4.49;100.00
24486;BME280;13449;49.374;8.584;2024-02-21T06:14:21;101243.97;;;4.42;100.00
24486;BME280;13449;49.374;8.584;2024-02-21T06:16:47;101243.34;;;4.35;100.00
24486;BME280;13449;49.374;8.584;2024-02-21T06:19:14;101240.97;;;4.29;100.00
24486;BME280;13449;49.374;8.584;2024-02-21T06:21:43;101241.03;;;4.28;100.00
24486;BME280;13449;49.374;8.584;2024-02-21T06:24:10;101235.31;;;4.18;100.00
24486;BME280;13449;49.374;8.584;2024-02-21T06:26:40;101235.44;;;4.15;100.00
24486;BME280;13449;49.374;8.584;2024-02-21T06:29:11;101236.34;;;4.14;100.00
24486;BME280;13449;49.374;8.584;2024-02-21T06:31:40;101246.06;;;4.10;100.00
24486;BME280;13449;49.374;8.584;2024-02-21T06:34:06;101243.59;;;4.06;100.00
24486;BME280;13449;49.374;8.584;2024-02-21T06:36:33;101240.06;;;4.07;100.00
24486;BME280;13449;49.374;8.584;2024-02-21T06:39:00;101239.22;;;4.06;100.00
24486;BME280;13449;49.374;8.584;2024-02-21T06:41:27;101234.97;;;4.04;100.00
24486;BME280;13449;49.374;8.584;2024-02-21T06:43:53;101226.38;;;4.02;100.00
24486;BME280;13449;49.374;8.584;2024-02-21T06:46:26;101230.69;;;4.03;100.00
24486;BME280;13449;49.374;8.584;2024-02-21T06:48:53;101228.06;;;4.03;100.00
24486;BME280;13449;49.374;8.584;2024-02-21T06:51:20;101234.13;;;4.03;100.00
24486;BME280;13449;49.374;8.584;2024-02-21T06:53:46;101230.50;;;4.07;100.00
24486;BME280;13449;49.374;8.584;2024-02-21T06:56:13;101230.34;;;4.12;100.00
24486;BME280;13449;49.374;8.584;2024-02-21T06:58:40;101228.47;;;4.15;100.00
24486;BME280;13449;49.374;8.584;2024-02-21T07:01:07;101231.47;;;4.28;100.00
24486;BME280;13449;49.374;8.584;2024-02-21T07:03:33;101235.66;;;4.32;100.00
24486;BME280;13449;49.374;8.584;2024-02-21T07:06:00;101245.88;;;4.37;100.00
24486;BME280;13449;49.374;8.584;2024-02-21T07:08:30;101246.09;;;4.54;100.00
24486;BME280;13449;49.374;8.584;2024-02-21T07:10:56;101237.72;;;4.68;100.00
24486;BME280;13449;49.374;8.584;2024-02-21T07:13:25;101238.16;;;4.79;100.00
24486;BME280;13449;49.374;8.584;2024-02-21T07:15:52;101238.78;;;4.84;100.00
24486;BME280;13449;49.374;8.584;2024-02-21T07:18:18;101246.78;;;5.01;100.00
24486;BME280;13449;49.374;8.584;2024-02-21T07:20:46;101234.00;;;4.95;100.00
24486;BME280;13449;49.374;8.584;2024-02-21T07:23:13;101234.66;;;5.00;100.00
24486;BME280;13449;49.374;8.584;2024-02-21T07:25:39;101224.06;;;5.03;100.00
24486;BME280;13449;49.374;8.584;2024-02-21T07:28:06;101223.06;;;5.07;100.00
24486;BME280;13449;49.374;8.584;2024-02-21T07:30:35;101215.72;;;5.16;100.00
24486;BME280;13449;49.374;8.584;2024-02-21T07:33:02;101203.38;;;5.19;100.00
24486;BME280;13449;49.374;8.584;2024-02-21T07:35:29;101191.56;;;5.31;100.00
24486;BME280;13449;49.374;8.584;2024-02-21T07:37:56;101192.66;;;5.46;100.00
24486;BME280;13449;49.374;8.584;2024-02-21T07:40:23;101198.28;;;5.57;100.00
24486;BME280;13449;49.374;8.584;2024-02-21T07:42:49;101193.41;;;5.68;100.00
24486;BME280;13449;49.374;8.584;2024-02-21T07:45:18;101181.63;;;5.78;100.00
24486;BME280;13449;49.374;8.584;2024-02-21T07:47:48;101183.78;;;5.89;100.00
24486;BME280;13449;49.374;8.584;2024-02-21T07:50:14;101172.91;;;5.98;100.00
24486;BME280;13449;49.374;8.584;2024-02-21T07:52:41;101162.19;;;6.04;100.00
24486;BME280;13449;49.374;8.584;2024-02-21T07:55:08;101156.50;;;6.13;100.00
24486;BME280;13449;49.374;8.584;2024-02-21T07:57:37;101139.31;;;6.26;100.00
24486;BME280;13449;49.374;8.584;2024-02-21T08:00:03;101134.25;;;6.41;100.00
24486;BME280;13449;49.374;8.584;2024-02-21T08:02:31;101129.34;;;6.52;100.00
24486;BME280;13449;49.374;8.584;2024-02-21T08:04:57;101115.72;;;6.63;100.00
24486;BME280;13449;49.374;8.584;2024-02-21T08:07:24;101117.13;;;6.70;100.00
24486;BME280;13449;49.374;8.584;2024-02-21T08:09:51;101114.06;;;6.79;100.00
24486;BME280;13449;49.374;8.584;2024-02-21T08:12:17;101090.94;;;6.87;100.00
24486;BME280;13449;49.374;8.584;2024-02-21T08:14:43;101098.25;;;6.98;100.00
24486;BME280;13449;49.374;8.584;2024-02-21T08:17:10;101096.06;;;7.06;100.00
24486;BME280;13449;49.374;8.584;2024-02-21T08:19:37;101093.91;;;7.14;100.00
24486;BME280;13449;49.374;8.584;2024-02-21T08:22:03;101092.63;;;7.21;100.00
24486;BME280;13449;49.374;8.584;2024-02-21T08:24:30;101081.69;;;7.30;100.00
24486;BME280;13449;49.374;8.584;2024-02-21T08:26:57;101084.81;;;7.37;100.00
24486;BME280;13449;49.374;8.584;2024-02-21T08:29:23;101075.84;;;7.41;100.00
24486;BME280;13449;49.374;8.584;2024-02-21T08:31:53;101071.81;;;7.51;100.00
24486;BME280;13449;49.374;8.584;2024-02-21T08:34:20;101055.16;;;7.52;100.00
24486;BME280;13449;49.374;8.584;2024-02-21T08:36:47;101052.53;;;7.52;100.00
24486;BME280;13449;49.374;8.584;2024-02-21T08:39:13;101053.06;;;7.59;100.00
24486;BME280;13449;49.374;8.584;2024-02-21T08:41:43;101042.56;;;7.59;100.00
24486;BME280;13449;49.374;8.584;2024-02-21T08:44:27;101042.81;;;7.70;100.00
24486;BME280;13449;49.374;8.584;2024-02-21T08:46:54;101043.25;;;7.78;100.00
24486;BME280;13449;49.374;8.584;2024-02-21T08:49:21;101034.00;;;7.71;100.00
24486;BME280;13449;49.374;8.584;2024-02-21T08:51:48;101043.16;;;7.79;100.00
24486;BME280;13449;49.374;8.584;2024-02-21T08:54:17;101034.09;;;7.85;100.00
24486;BME280;13449;49.374;8.584;2024-02-21T08:56:44;101027.81;;;7.88;100.00
24486;BME280;13449;49.374;8.584;2024-02-21T08:59:10;101035.44;;;7.92;100.00
24486;BME280;13449;49.374;8.584;2024-02-21T09:01:37;101040.69;;;7.92;100.00
24486;BME280;13449;49.374;8.584;2024-02-21T09:04:07;101036.59;;;8.02;100.00
24486;BME280;13449;49.374;8.584;2024-02-21T09:06:34;101033.84;;;8.05;100.00
24486;BME280;13449;49.374;8.584;2024-02-21T09:09:03;101032.34;;;8.16;100.00
24486;BME280;13449;49.374;8.584;2024-02-21T09:11:30;101025.41;;;8.15;100.00
24486;BME280;13449;49.374;8.584;2024-02-21T09:13:57;101029.22;;;8.25;100.00
24486;BME280;13449;49.374;8.584;2024-02-21T09:16:23;101021.81;;;8.31;100.00
24486;BME280;13449;49.374;8.584;2024-02-21T09:18:50;101016.25;;;8.37;100.00
24486;BME280;13449;49.374;8.584;2024-02-21T09:21:17;101010.34;;;8.48;100.00
24486;BME280;13449;49.374;8.584;2024-02-21T09:23:45;101009.06;;;8.55;100.00
24486;BME280;13449;49.374;8.584;2024-02-21T09:26:11;101004.78;;;8.68;100.00
24486;BME280;13449;49.374;8.584;2024-02-21T09:28:43;101014.53;;;8.81;100.00
24486;BME280;13449;49.374;8.584;2024-02-21T09:31:11;101008.53;;;8.93;100.00
24486;BME280;13449;49.374;8.584;2024-02-21T09:33:37;101005.34;;;9.02;100.00
24486;BME280;13449;49.374;8.584;2024-02-21T09:36:04;100999.72;;;9.08;100.00
24486;BME280;13449;49.374;8.584;2024-02-21T09:38:33;100992.25;;;9.29;100.00
24486;BME280;13449;49.374;8.584;2024-02-21T09:43:37;100978.03;;;9.46;100.00
24486;BME280;13449;49.374;8.584;2024-02-21T09:46:07;100971.09;;;9.45;100.00
24486;BME280;13449;49.374;8.584;2024-02-21T09:51:23;100964.28;;;9.69;100.00
24486;BME280;13449;49.374;8.584;2024-02-21T09:53:50;100968.13;;;9.90;100.00
24486;BME280;13449;49.374;8.584;2024-02-21T09:56:32;100963.59;;;9.93;100.00
24486;BME280;13449;49.374;8.584;2024-02-21T09:59:01;100954.59;;;9.97;100.00
24486;BME280;13449;49.374;8.584;2024-02-21T10:01:31;100951.38;;;9.91;100.00
24486;BME280;13449;49.374;8.584;2024-02-21T10:04:01;100947.44;;;9.99;100.00
24486;BME280;13449;49.374;8.584;2024-02-21T10:06:30;100947.31;;;10.00;100.00
24486;BME280;13449;49.374;8.584;2024-02-21T10:08:57;100941.75;;;10.05;100.00
24486;BME280;13449;49.374;8.584;2024-02-21T10:11:26;100949.44;;;10.08;100.00
24486;BME280;13449;49.374;8.584;2024-02-21T10:14:06;100944.41;;;10.17;100.00
24486;BME280;13449;49.374;8.584;2024-02-21T10:16:35;100933.19;;;10.28;100.00
24486;BME280;13449;49.374;8.584;2024-02-21T10:19:04;100928.44;;;10.33;100.00
24486;BME280;13449;49.374;8.584;2024-02-21T10:21:30;100923.28;;;10.44;100.00
24486;BME280;13449;49.374;8.584;2024-02-21T10:23:59;100923.59;;;10.53;100.00
24486;BME280;13449;49.374;8.584;2024-02-21T10:26:26;100924.75;;;10.61;100.00
24486;BME280;13449;49.374;8.584;2024-02-21T10:28:53;100919.91;;;10.68;100.00
24486;BME280;13449;49.374;8.584;2024-02-21T10:31:22;100917.34;;;10.79;100.00
24486;BME280;13449;49.374;8.584;2024-02-21T10:33:57;100904.47;;;10.87;100.00
24486;BME280;13449;49.374;8.584;2024-02-21T10:36:25;100900.34;;;10.96;100.00
24486;BME280;13449;49.374;8.584;2024-02-21T10:38:52;100904.88;;;11.06;100.00
24486;BME280;13449;49.374;8.584;2024-02-21T10:41:21;100888.59;;;11.13;100.00
24486;BME280;13449;49.374;8.584;2024-02-21T10:43:53;100890.94;;;11.04;100.00
24486;BME280;13449;49.374;8.584;2024-02-21T10:46:22;100881.06;;;10.95;100.00
24486;BME280;13449;49.374;8.584;2024-02-21T10:49:01;100871.56;;;11.05;100.00
24486;BME280;13449;49.374;8.584;2024-02-21T10:51:33;100872.38;;;11.30;100.00
24486;BME280;13449;49.374;8.584;2024-02-21T10:56:34;100855.19;;;11.37;100.00
24486;BME280;13449;49.374;8.584;2024-02-21T10:59:06;100849.81;;;11.02;100.00
24486;BME280;13449;49.374;8.584;2024-02-21T11:01:34;100849.13;;;11.24;100.00
24486;BME280;13449;49.374;8.584;2024-02-21T11:04:05;100851.13;;;11.44;100.00
24486;BME280;13449;49.374;8.584;2024-02-21T11:06:34;100849.50;;;11.54;100.00
24486;BME280;13449;49.374;8.584;2024-02-21T11:09:06;100831.44;;;11.37;100.00
24486;BME280;13449;49.374;8.584;2024-02-21T11:11:41;100826.59;;;11.31;100.00
24486;BME280;13449;49.374;8.584;2024-02-21T11:14:19;100825.53;;;11.33;100.00
24486;BME280;13449;49.374;8.584;2024-02-21T11:16:46;100818.47;;;11.34;100.00
24486;BME280;13449;49.374;8.584;2024-02-21T11:19:20;100820.91;;;11.48;100.00
24486;BME280;13449;49.374;8.584;2024-02-21T11:21:48;100820.78;;;11.50;100.00
24486;BME280;13449;49.374;8.584;2024-02-21T11:24:33;100820.91;;;11.48;100.00
24486;BME280;13449;49.374;8.584;2024-02-21T11:27:21;100819.69;;;11.41;100.00
24486;BME280;13449;49.374;8.584;2024-02-21T11:29:49;100804.09;;;11.38;100.00
24486;BME280;13449;49.374;8.584;2024-02-21T11:32:21;100807.34;;;11.42;100.00
24486;BME280;13449;49.374;8.584;2024-02-21T11:37:21;100794.16;;;11.42;100.00
24486;BME280;13449;49.374;8.584;2024-02-21T11:40:00;100775.03;;;11.62;100.00
24486;BME280;13449;49.374;8.584;2024-02-21T11:42:30;100787.75;;;11.57;100.00
24486;BME280;13449;49.374;8.584;2024-02-21T11:44:57;100772.34;;;11.51;100.00
24486;BME280;13449;49.374;8.584;2024-02-21T11:47:28;100767.91;;;11.51;100.00
24486;BME280;13449;49.374;8.584;2024-02-21T11:49:57;100756.31;;;11.65;100.00
24486;BME280;13449;49.374;8.584;2024-02-21T11:52:25;100754.75;;;11.62;100.00
24486;BME280;13449;49.374;8.584;2024-02-21T11:54:53;100745.19;;;11.73;100.00
24486;BME280;13449;49.374;8.584;2024-02-21T11:57:21;100747.13;;;11.82;100.00
24486;BME280;13449;49.374;8.584;2024-02-21T11:59:50;100742.09;;;11.79;100.00
24486;BME280;13449;49.374;8.584;2024-02-21T12:02:24;100742.56;;;11.73;100.00
24486;BME280;13449;49.374;8.584;2024-02-21T12:04:52;100729.84;;;11.78;100.00
24486;BME280;13449;49.374;8.584;2024-02-21T12:07:18;100731.81;;;11.87;100.00
24486;BME280;13449;49.374;8.584;2024-02-21T12:09:47;100728.84;;;11.56;100.00
24486;BME280;13449;49.374;8.584;2024-02-21T12:12:20;100717.81;;;11.62;100.00
24486;BME280;13449;49.374;8.584;2024-02-21T12:14:46;100710.38;;;11.67;100.00
24486;BME280;13449;49.374;8.584;2024-02-21T12:17:13;100711.00;;;11.71;100.00
24486;BME280;13449;49.374;8.584;2024-02-21T12:19:39;100703.22;;;11.69;100.00
24486;BME280;13449;49.374;8.584;2024-02-21T12:22:06;100700.81;;;11.78;100.00
24486;BME280;13449;49.374;8.584;2024-02-21T12:24:37;100695.06;;;11.73;100.00
24486;BME280;13449;49.374;8.584;2024-02-21T12:27:05;100689.06;;;11.70;100.00
24486;BME280;13449;49.374;8.584;2024-02-21T12:29:32;100681.84;;;11.73;100.00
24486;BME280;13449;49.374;8.584;2024-02-21T12:32:01;100681.63;;;11.76;100.00
24486;BME280;13449;49.374;8.584;2024-02-21T12:34:27;100675.88;;;11.93;100.00
24486;BME280;13449;49.374;8.584;2024-02-21T12:37:14;100669.88;;;11.91;100.00
24486;BME280;13449;49.374;8.584;2024-02-21T12:39:42;100653.31;;;11.78;100.00
24486;BME280;13449;49.374;8.584;2024-02-21T12:42:10;100644.00;;;11.85;100.00
24486;BME280;13449;49.374;8.584;2024-02-21T12:44:38;100647.69;;;11.93;100.00
24486;BME280;13449;49.374;8.584;2024-02-21T12:47:04;100646.59;;;11.96;100.00
24486;BME280;13449;49.374;8.584;2024-02-21T12:49:33;100634.84;;;11.89;100.00
24486;BME280;13449;49.374;8.584;2024-02-21T12:52:01;100637.25;;;11.92;100.00
24486;BME280;13449;49.374;8.584;2024-02-21T12:54:30;100631.97;;;11.92;100.00
24486;BME280;13449;49.374;8.584;2024-02-21T12:56:57;100621.66;;;12.00;100.00
24486;BME280;13449;49.374;8.584;2024-02-21T12:59:24;100633.13;;;12.10;100.00
24486;BME280;13449;49.374;8.584;2024-02-21T13:01:52;100611.56;;;11.94;100.00